Time;durP1;ratioP1;P1;durP2;ratioP2;P2;SDS_P1;SDS_P2;PMS_P1;PMS_P2;Temp;Humidity;BMP_temperature;BMP_pressure;BME280_temperature;BME280_humidity;BME280_pressure;Samples;Min_cycle;Max_cycle;Signal;HPM_P1;HPM_P2
2022/09/13 00:02:06;;;;;;;16.30;11.13;;;;;;;11.17;61.57;99669.50;6218523;23;20061;-88
2022/09/13 00:04:32;;;;;;;18.45;11.82;;;;;;;10.93;61.85;99645.94;6217863;23;20023;-88
2022/09/13 00:06:59;;;;;;;18.98;12.00;;;;;;;11.02;62.01;99651.47;6218813;23;20497;-88
2022/09/13 00:09:25;;;;;;;20.88;12.15;;;;;;;10.99;61.77;99649.34;6168026;23;20489;-89
2022/09/13 00:11:51;;;;;;;17.55;11.95;;;;;;;11.10;61.95;99663.63;6218845;23;20111;-89
2022/09/13 00:14:17;;;;;;;21.33;12.93;;;;;;;11.01;61.96;99652.59;6218334;23;20012;-87
2022/09/13 00:16:43;;;;;;;19.58;12.20;;;;;;;10.92;61.97;99644.28;6168835;23;20016;-87
2022/09/13 00:19:09;;;;;;;19.20;11.52;;;;;;;10.99;62.25;99646.59;6192859;23;20109;-90
2022/09/13 00:21:35;;;;;;;24.23;12.18;;;;;;;10.90;62.12;99638.34;6217976;23;20016;-88
2022/09/13 00:24:01;;;;;;;24.73;11.77;;;;;;;10.91;62.57;99648.16;6218686;23;20016;-89
2022/09/13 00:26:28;;;;;;;20.02;11.90;;;;;;;10.94;62.49;99649.47;6193533;23;20066;-89
2022/09/13 00:28:57;;;;;;;18.65;11.55;;;;;;;10.83;63.09;99643.41;6244918;23;20016;-89
2022/09/13 00:31:26;;;;;;;20.38;12.88;;;;;;;10.58;62.76;99612.75;6218566;23;20023;-88
2022/09/13 00:33:52;;;;;;;20.10;11.63;;;;;;;10.93;63.17;99667.00;6193706;23;20466;-89
2022/09/13 00:36:19;;;;;;;21.70;12.53;;;;;;;10.87;62.92;99662.75;6168021;23;20103;-89
2022/09/13 00:38:45;;;;;;;19.10;12.13;;;;;;;10.74;63.02;99643.31;6192804;23;20450;-88
2022/09/13 00:41:16;;;;;;;22.23;12.18;;;;;;;10.46;63.24;99619.84;6218671;23;20055;-89
2022/09/13 00:43:44;;;;;;;20.20;13.27;;;;;;;10.64;63.68;99659.94;6192736;23;20031;-89
2022/09/13 00:46:16;;;;;;;19.73;12.68;;;;;;;10.44;63.59;99633.84;6168743;23;20020;-89
2022/09/13 00:48:45;;;;;;;18.40;12.20;;;;;;;10.43;64.19;99625.91;6192540;23;20012;-88
2022/09/13 00:51:11;;;;;;;26.48;13.57;;;;;;;10.46;64.00;99636.25;6245476;23;20023;-88
2022/09/13 00:53:42;;;;;;;22.93;14.37;;;;;;;10.53;63.88;99667.53;6245120;23;20524;-89
2022/09/13 00:56:18;;;;;;;27.52;14.13;;;;;;;10.33;64.55;99651.53;6218849;23;20024;-88
2022/09/13 00:59:11;;;;;;;23.17;14.50;;;;;;;10.32;64.79;99656.19;6193787;23;20016;-88
2022/09/13 01:01:45;;;;;;;24.67;14.75;;;;;;;10.48;65.09;99672.28;6217006;23;20255;-89
2022/09/13 01:04:11;;;;;;;20.77;13.40;;;;;;;10.47;64.44;99659.75;6244342;23;20016;-90
2022/09/13 01:06:40;;;;;;;23.40;14.05;;;;;;;10.44;64.28;99669.38;6245283;23;20044;-90
2022/09/13 01:09:07;;;;;;;21.63;14.15;;;;;;;10.00;64.65;99598.84;6193104;23;20016;-90
2022/09/13 01:11:59;;;;;;;27.10;14.63;;;;;;;10.27;64.68;99645.38;6218616;23;20016;-89
2022/09/13 01:14:27;;;;;;;21.83;13.60;;;;;;;10.30;64.29;99647.50;6193206;23;20020;-89
2022/09/13 01:16:53;;;;;;;23.00;13.40;;;;;;;10.28;64.36;99657.09;6217883;23;20087;-88
2022/09/13 01:19:19;;;;;;;27.17;14.27;;;;;;;9.98;64.83;99617.47;6244305;23;20465;-87
2022/09/13 01:22:24;;;;;;;24.10;13.80;;;;;;;10.16;64.88;99662.22;6218502;23;20460;-88
2022/09/13 01:25:19;;;;;;;29.27;14.00;;;;;;;10.07;65.48;99653.91;6093863;23;20412;-88
2022/09/13 01:28:01;;;;;;;21.90;13.02;;;;;;;9.98;65.50;99655.72;6218323;23;20406;-90
2022/09/13 01:30:36;;;;;;;20.75;13.45;;;;;;;9.90;66.15;99649.03;6217439;23;20453;-87
2022/09/13 01:33:32;;;;;;;20.63;13.30;;;;;;;9.95;65.97;99657.13;6244253;23;20031;-88
2022/09/13 01:36:24;;;;;;;20.95;13.23;;;;;;;9.85;66.22;99643.66;6192272;23;20461;-87
2022/09/13 01:39:05;;;;;;;24.20;14.27;;;;;;;9.63;66.16;99614.25;6218091;23;20642;-90
2022/09/13 01:41:46;;;;;;;19.10;12.30;;;;;;;9.73;66.26;99630.47;6168244;23;20020;-88
2022/09/13 01:44:18;;;;;;;23.20;13.52;;;;;;;9.85;66.01;99647.19;6192654;23;20103;-88
2022/09/13 01:47:14;;;;;;;17.30;12.13;;;;;;;9.86;65.93;99651.53;6218320;23;20020;-87
2022/09/13 01:49:49;;;;;;;23.63;12.85;;;;;;;9.69;66.32;99629.44;6192224;23;20065;-89
2022/09/13 01:52:21;;;;;;;16.70;11.55;;;;;;;9.83;66.24;99637.66;6168058;23;20027;-88
2022/09/13 01:55:08;;;;;;;20.67;12.43;;;;;;;9.61;66.33;99630.94;6217902;23;20016;-87
2022/09/13 01:57:34;;;;;;;;;;;;;;;9.72;66.33;99645.22;6168463;23;20015;-86
2022/09/13 02:00:09;;;;;;;16.07;11.27;;;;;;;9.54;66.59;99636.00;6192311;23;20460;-89
2022/09/13 02:02:41;;;;;;;22.88;11.93;;;;;;;9.60;67.08;99644.88;6192827;23;20016;-89
2022/09/13 02:05:17;;;;;;;21.00;12.00;;;;;;;9.55;66.83;99651.25;6187898;23;20021;-88
2022/09/13 02:07:53;;;;;;;21.77;11.75;;;;;;;9.51;67.04;99646.69;6212978;23;20450;-91
2022/09/13 02:10:36;;;;;;;20.08;11.70;;;;;;;9.49;67.16;99646.16;6214450;23;20071;-89
2022/09/13 02:13:09;;;;;;;16.48;11.25;;;;;;;9.23;67.39;99613.00;6214236;23;20016;-87
2022/09/13 02:15:46;;;;;;;21.73;12.27;;;;;;;9.28;67.63;99621.13;6214687;23;20012;-88
2022/09/13 02:18:28;;;;;;;26.88;12.82;;;;;;;9.40;67.70;99641.41;6214330;23;20021;-89
2022/09/13 02:21:00;;;;;;;19.55;13.25;;;;;;;9.30;67.52;99633.34;6162441;23;20016;-87
2022/09/13 02:23:43;;;;;;;21.95;13.38;;;;;;;9.28;67.80;99626.59;6187557;23;20021;-87
2022/09/13 02:26:13;;;;;;;22.13;13.10;;;;;;;9.20;67.98;99613.59;6187715;23;20553;-88
2022/09/13 02:28:46;;;;;;;22.42;13.52;;;;;;;9.18;68.17;99622.09;6212529;23;20016;-89
2022/09/13 02:31:20;;;;;;;21.40;13.77;;;;;;;9.02;67.99;99582.53;6214590;23;20120;-88
2022/09/13 02:33:56;;;;;;;23.73;13.90;;;;;;;9.15;67.86;99604.41;6215517;23;20024;-88
2022/09/13 02:36:30;;;;;;;19.25;13.40;;;;;;;9.22;67.99;99608.69;6215362;23;20016;-89
2022/09/13 02:39:01;;;;;;;21.33;13.77;;;;;;;9.07;68.22;99586.00;6206565;23;20021;-88
2022/09/13 02:41:42;;;;;;;23.60;13.68;;;;;;;9.37;68.05;99622.88;6216525;23;20044;-88
2022/09/13 02:44:33;;;;;;;24.48;14.30;;;;;;;9.14;67.81;99582.91;6217396;23;20398;-90
2022/09/13 02:47:37;;;;;;;24.10;13.90;;;;;;;9.41;67.94;99626.63;6180303;23;20031;-88
2022/09/13 02:50:20;;;;;;;22.30;13.65;;;;;;;9.38;68.10;99627.22;6076781;23;20037;-92
2022/09/13 02:53:30;;;;;;;24.23;14.30;;;;;;;9.16;68.14;99608.75;6209459;23;20021;-91
2022/09/13 02:56:02;;;;;;;20.60;13.52;;;;;;;9.31;68.27;99626.00;6213020;23;20021;-89
2022/09/13 02:58:43;;;;;;;24.50;14.27;;;;;;;9.29;68.31;99629.00;6165972;23;20097;-89
2022/09/13 03:01:10;;;;;;;22.65;13.95;;;;;;;9.22;68.15;99609.47;6217973;23;20447;-92
2022/09/13 03:03:36;;;;;;;26.08;14.25;;;;;;;9.27;68.06;99624.94;6213798;23;20103;-87
2022/09/13 03:06:03;;;;;;;22.05;13.48;;;;;;;9.22;68.09;99620.38;6211949;23;20020;-88
2022/09/13 03:08:29;;;;;;;20.80;13.55;;;;;;;8.99;68.38;99589.38;6131420;23;20017;-90
2022/09/13 03:11:04;;;;;;;26.15;14.75;;;;;;;9.11;68.93;99614.28;6155684;23;20016;-86
2022/09/13 03:13:39;;;;;;;22.65;14.05;;;;;;;9.12;68.96;99615.91;6131648;23;20112;-88
2022/09/13 03:16:26;;;;;;;22.08;13.85;;;;;;;9.03;68.73;99595.84;6156266;23;20024;-87
2022/09/13 03:19:03;;;;;;;23.45;14.43;;;;;;;9.20;68.61;99625.31;6156350;23;20051;-87
2022/09/13 03:21:37;;;;;;;20.50;13.75;;;;;;;9.16;68.55;99621.56;6180502;23;20052;-86
2022/09/13 03:24:30;;;;;;;26.83;14.93;;;;;;;9.18;68.82;99624.81;6155744;23;20025;-86
2022/09/13 03:27:34;;;;;;;23.10;13.70;;;;;;;9.24;68.58;99622.81;6132258;23;20100;-89
2022/09/13 03:30:09;;;;;;;26.30;14.13;;;;;;;9.09;68.71;99602.03;6107154;23;20020;-88
2022/09/13 03:32:47;;;;;;;24.13;13.85;;;;;;;9.26;68.64;99617.88;6132071;23;20316;-87
2022/09/13 03:35:45;;;;;;;24.20;13.90;;;;;;;9.09;68.33;99591.13;6107411;23;20017;-92
2022/09/13 03:38:42;;;;;;;24.27;15.05;;;;;;;8.90;68.33;99553.78;6181869;23;20020;-91
2022/09/13 03:41:21;;;;;;;29.75;15.07;;;;;;;9.13;68.58;99595.69;6158810;23;20031;-90
2022/09/13 03:44:03;;;;;;;23.77;14.88;;;;;;;9.05;68.50;99588.19;6183485;23;20017;-89
2022/09/13 03:46:35;;;;;;;29.02;15.20;;;;;;;9.26;68.54;99609.69;6173769;23;20510;-91
2022/09/13 03:49:07;;;;;;;24.48;14.55;;;;;;;9.16;68.41;99595.09;6215055;23;20019;-91
2022/09/13 03:51:34;;;;;;;24.20;13.77;;;;;;;8.97;68.07;99558.84;6215337;23;20043;-93
2022/09/13 03:54:03;;;;;;;;;;;;;;;9.27;67.97;99614.03;6192280;23;20025;-90
2022/09/13 03:56:30;;;;;;;23.52;12.77;;;;;;;9.08;68.16;99567.72;6192347;23;20011;-89
2022/09/13 03:58:57;;;;;;;22.05;13.27;;;;;;;9.30;68.16;99589.69;6214369;23;20095;-88
2022/09/13 04:01:24;;;;;;;28.00;13.00;;;;;;;9.27;67.72;99571.22;6188664;23;20028;-93
2022/09/13 04:03:50;;;;;;;22.67;12.52;;;;;;;9.40;67.93;99595.00;6215738;23;20066;-88
2022/09/13 04:06:17;;;;;;;24.25;12.65;;;;;;;9.64;67.31;99613.19;6193613;23;20402;-88
2022/09/13 04:08:46;;;;;;;41.58;14.45;;;;;;;9.71;67.39;99621.78;6245490;23;20138;-87
2022/09/13 04:11:12;;;;;;;44.72;13.50;;;;;;;9.45;66.82;99572.28;6245342;23;20026;-83
2022/09/13 04:13:47;;;;;;;30.92;13.23;;;;;;;9.70;66.81;99600.22;6219556;23;20095;-88
2022/09/13 04:16:13;;;;;;;71.88;15.45;;;;;;;9.78;67.19;99615.94;6245541;23;20027;-86
2022/09/13 04:18:39;;;;;;;70.37;14.23;;;;;;;9.66;67.35;99583.63;6245089;23;20052;-89
2022/09/13 04:21:06;;;;;;;35.38;13.23;;;;;;;9.79;67.07;99606.63;6193525;23;20016;-89
2022/09/13 04:23:32;;;;;;;53.50;15.87;;;;;;;9.58;67.15;99567.97;6244648;23;20019;-88
2022/09/13 04:26:03;;;;;;;46.08;13.57;;;;;;;9.72;66.96;99581.63;6192857;23;20016;-84
2022/09/13 04:28:29;;;;;;;41.88;13.05;;;;;;;9.75;66.35;99600.97;6244637;23;20024;-88
2022/09/13 04:30:56;;;;;;;22.58;12.25;;;;;;;9.76;66.12;99588.91;6216903;23;20019;-90
2022/09/13 04:33:22;;;;;;;37.65;12.25;;;;;;;9.89;66.29;99620.09;6168864;23;20020;-86
2022/09/13 04:35:52;;;;;;;48.90;12.20;;;;;;;9.71;66.35;99588.22;6245190;23;20020;-87
2022/09/13 04:38:18;;;;;;;41.70;13.15;;;;;;;9.77;66.32;99603.41;6193639;23;20074;-86
2022/09/13 04:40:52;;;;;;;45.28;13.10;;;;;;;9.80;66.32;99606.34;6245521;23;20020;-88
2022/09/13 04:43:22;;;;;;;33.80;13.75;;;;;;;9.52;66.45;99572.69;6194472;23;20362;-91
2022/09/13 04:45:49;;;;;;;32.88;12.30;;;;;;;9.69;66.81;99585.78;6171117;23;20409;-92
2022/09/13 04:48:16;;;;;;;24.60;11.77;;;;;;;9.41;66.52;99549.44;6194297;23;20016;-91
2022/09/13 04:50:42;;;;;;;24.30;11.83;;;;;;;9.64;67.37;99559.38;6168823;23;20353;-87
2022/09/13 04:53:08;;;;;;;22.20;12.23;;;;;;;9.81;66.36;99586.09;6218058;23;20020;-89
2022/09/13 04:55:35;;;;;;;23.25;10.88;;;;;;;9.94;66.33;99619.22;6218148;23;20016;-86
2022/09/13 04:58:02;;;;;;;19.67;11.00;;;;;;;9.91;66.61;99615.16;6217981;23;20023;-87
2022/09/13 05:00:30;;;;;;;28.38;11.80;;;;;;;9.91;66.46;99603.41;6245501;23;20020;-87
2022/09/13 05:02:56;;;;;;;24.58;12.07;;;;;;;10.07;66.36;99623.88;6245710;23;20032;-91
2022/09/13 05:05:24;;;;;;;18.40;11.73;;;;;;;10.06;66.05;99611.31;6245513;23;20510;-88
2022/09/13 05:07:51;;;;;;;25.17;11.68;;;;;;;10.14;65.90;99632.47;6245323;23;20090;-88
2022/09/13 05:10:18;;;;;;;23.77;10.63;;;;;;;9.81;65.96;99572.44;6246089;23;20133;-91
2022/09/13 05:12:44;;;;;;;24.88;12.05;;;;;;;9.87;66.18;99586.81;6193967;23;20027;-93
2022/09/13 05:15:11;;;;;;;16.77;10.13;;;;;;;9.83;66.15;99591.25;6169960;23;20016;-90
2022/09/13 05:17:37;;;;;;;30.45;11.57;;;;;;;10.03;66.10;99612.75;6170726;23;20721;-93
2022/09/13 05:20:05;;;;;;;19.75;10.38;;;;;;;10.08;65.96;99603.63;6195084;23;20454;-93
2022/09/13 05:22:31;;;;;;;18.00;10.30;;;;;;;10.13;65.97;99598.06;6195709;23;20035;-92
2022/09/13 05:24:57;;;;;;;26.48;11.35;;;;;;;10.01;65.80;99578.66;6170067;23;20489;-93
2022/09/13 05:27:23;;;;;;;32.22;11.18;;;;;;;10.33;65.75;99637.84;6171091;23;20102;-92
2022/09/13 05:29:49;;;;;;;28.42;10.98;;;;;;;10.24;65.28;99612.34;6172758;23;20369;-93
2022/09/13 05:32:15;;;;;;;29.48;10.98;;;;;;;10.20;65.42;99594.91;6173992;23;20520;-92
2022/09/13 05:34:41;;;;;;;21.30;10.77;;;;;;;10.05;64.65;99568.72;6175211;23;20047;-93
2022/09/13 05:37:08;;;;;;;19.90;11.77;;;;;;;10.37;64.91;99613.50;6175000;23;20023;-93
2022/09/13 05:39:36;;;;;;;27.40;15.00;;;;;;;10.57;64.84;99632.22;6172682;23;20107;-94
2022/09/13 05:42:02;;;;;;;23.27;10.75;;;;;;;10.37;64.97;99588.91;6175540;23;20016;-94
2022/09/13 05:44:28;;;;;;;24.02;10.85;;;;;;;10.31;64.85;99580.78;6175799;23;20127;-94
2022/09/13 05:46:54;;;;;;;18.85;10.13;;;;;;;10.53;64.83;99609.34;6198861;23;20402;-93
2022/09/13 05:49:21;;;;;;;22.20;11.18;;;;;;;10.31;64.15;99566.31;6171414;23;20019;-93
2022/09/13 05:51:47;;;;;;;24.58;10.88;;;;;;;10.40;64.07;99585.53;6197084;23;20015;-93
2022/09/13 05:54:13;;;;;;;26.00;11.13;;;;;;;10.35;64.42;99559.94;6172182;23;20074;-92
2022/09/13 05:56:40;;;;;;;18.85;10.77;;;;;;;10.57;64.33;99583.81;6171966;23;20127;-94
2022/09/13 05:59:07;;;;;;;26.35;11.65;;;;;;;10.61;64.61;99594.94;6170993;23;20019;-93
2022/09/13 06:01:33;;;;;;;22.13;10.52;;;;;;;10.63;64.35;99589.97;6170448;23;20023;-93
2022/09/13 06:04:00;;;;;;;28.17;10.30;;;;;;;10.52;64.16;99572.16;6170591;23;20024;-93
2022/09/13 06:06:26;;;;;;;47.88;12.82;;;;;;;10.61;64.12;99570.34;6173718;23;20616;-94
2022/09/13 06:08:54;;;;;;;31.30;11.23;;;;;;;10.55;63.93;99566.88;6171462;23;20465;-94
2022/09/13 06:11:21;;;;;;;23.75;11.40;;;;;;;10.79;64.28;99590.44;6171643;23;20026;-91
2022/09/13 06:13:47;;;;;;;;;;;;;;;10.98;63.32;99618.44;6171415;23;20020;-93
2022/09/13 06:16:15;;;;;;;26.13;12.15;;;;;;;10.84;63.25;99587.59;6195158;23;19962;-94
2022/09/13 06:18:42;;;;;;;16.40;10.00;;;;;;;10.98;63.23;99614.91;6195369;23;20070;-93
2022/09/13 06:21:10;;;;;;;;;;;;;;;11.05;63.32;99621.56;6170688;23;20343;-92
2022/09/13 06:23:37;;;;;;;21.08;9.73;;;;;;;10.94;62.93;99584.63;6169101;23;19916;-92
2022/09/13 06:26:09;;;;;;;22.98;10.88;;;;;;;11.14;62.67;99607.97;6169115;23;20069;-91
2022/09/13 06:28:36;;;;;;;41.33;11.60;;;;;;;10.99;62.84;99581.78;6169868;23;20388;-93
2022/09/13 06:31:13;;;;;;;;;;;;;;;11.30;63.61;99613.91;6194874;23;20065;-90
2022/09/13 06:33:42;;;;;;;59.83;12.20;;;;;;;11.18;62.60;99580.78;6169334;23;20009;-93
2022/09/13 06:36:14;;;;;;;43.58;12.55;;;;;;;11.41;63.13;99622.66;6195739;23;20066;-91
2022/09/13 06:38:41;;;;;;;47.08;10.98;;;;;;;11.37;62.84;99597.03;6169639;23;20023;-90
2022/09/13 06:41:10;;;;;;;45.80;11.77;;;;;;;11.15;62.33;99554.06;6169955;23;20051;-92
2022/09/13 06:43:37;;;;;;;29.48;11.13;;;;;;;11.28;62.66;99575.06;6169660;23;20016;-94
2022/09/13 06:46:09;;;;;;;37.38;11.30;;;;;;;11.26;62.18;99556.25;6169928;23;20012;-91
2022/09/13 06:48:37;;;;;;;98.68;14.50;;;;;;;11.26;62.20;99552.69;6170345;23;20020;-94
2022/09/13 06:51:07;;;;;;;36.28;11.88;;;;;;;11.41;61.86;99574.19;6202043;23;20097;-95
2022/09/13 06:53:38;;;;;;;40.53;11.48;;;;;;;11.52;61.46;99574.75;6177541;23;20023;-95
2022/09/13 06:56:18;;;;;;;39.97;12.43;;;;;;;11.26;61.26;99525.34;6208644;22;20004;-94
2022/09/13 06:58:48;;;;;;;36.38;10.18;;;;;;;11.33;61.22;99522.97;6182052;22;20012;-96
2022/09/13 07:01:22;;;;;;;17.00;9.63;;;;;;;11.58;61.13;99556.25;6091615;23;20080;-95
2022/09/13 07:03:57;;;;;;;20.85;9.60;;;;;;;11.74;60.77;99574.72;6141387;23;20025;-94
2022/09/13 07:06:34;;;;;;;28.98;11.02;;;;;;;11.79;60.54;99545.56;6142955;23;20001;-94
2022/09/13 07:09:07;;;;;;;21.27;10.57;;;;;;;11.88;60.13;99554.66;6161221;23;20021;-92
2022/09/13 07:12:01;;;;;;;23.40;8.98;;;;;;;11.93;60.63;99538.09;6120591;23;20057;-92
2022/09/13 07:14:41;;;;;;;28.38;9.82;;;;;;;11.85;59.77;99516.94;6145688;23;20021;-93
2022/09/13 07:17:24;;;;;;;20.88;9.48;;;;;;;12.19;60.09;99560.13;6116416;23;20021;-93
2022/09/13 07:20:23;;;;;;;23.23;9.18;;;;;;;12.15;59.34;99535.28;6167928;23;20052;-92
2022/09/13 07:22:57;;;;;;;36.80;9.80;;;;;;;12.17;59.58;99527.53;6116618;23;20028;-93
2022/09/13 07:25:36;;;;;;;31.52;9.95;;;;;;;12.36;59.92;99527.28;6144410;23;20443;-92
2022/09/13 07:28:09;;;;;;;25.92;10.23;;;;;;;12.76;58.56;99559.28;6084916;23;20022;-93
2022/09/13 07:30:37;;;;;;;31.42;10.75;;;;;;;12.71;58.25;99527.31;6062942;23;20018;-92
2022/09/13 07:33:06;;;;;;;24.13;9.45;;;;;;;12.68;57.34;99515.06;6103975;23;20531;-95
2022/09/13 07:35:32;;;;;;;24.23;10.17;;;;;;;12.57;57.83;99480.84;6036762;23;20007;-95
2022/09/13 07:37:58;;;;;;;33.43;8.77;;;;;;;13.15;58.02;99555.56;6052126;23;20250;-95
2022/09/13 07:40:24;;;;;;;30.60;10.05;;;;;;;12.97;57.08;99526.50;6029033;23;20014;-96
2022/09/13 07:42:51;;;;;;;23.70;9.10;;;;;;;12.80;56.45;99503.44;6050379;23;20119;-95
2022/09/13 07:45:17;;;;;;;21.50;8.83;;;;;;;12.79;56.66;99506.50;6057029;23;20017;-86
2022/09/13 07:47:44;;;;;;;19.25;8.82;;;;;;;12.99;56.58;99541.53;6128150;23;20471;-86
2022/09/13 07:50:10;;;;;;;25.02;9.60;;;;;;;13.09;56.49;99546.69;6128369;23;20380;-86
2022/09/13 07:52:36;;;;;;;52.13;10.25;;;;;;;12.92;57.19;99513.75;6153205;23;20072;-86
2022/09/13 07:55:05;;;;;;;27.23;9.23;;;;;;;13.14;56.89;99543.78;6129503;23;20029;-88
2022/09/13 07:57:31;;;;;;;23.35;8.90;;;;;;;13.25;57.29;99552.53;6153699;23;20329;-87
2022/09/13 07:59:57;;;;;;;34.07;10.00;;;;;;;13.13;56.82;99505.66;6153299;23;20017;-86
2022/09/13 08:02:24;;;;;;;26.67;8.88;;;;;;;13.32;56.32;99517.13;6128795;23;20260;-85
2022/09/13 08:04:52;;;;;;;34.80;8.05;;;;;;;13.47;55.42;99529.53;6128157;23;20093;-86
2022/09/13 08:07:18;;;;;;;19.45;8.73;;;;;;;13.45;55.00;99515.34;6153284;23;20048;-86
2022/09/13 08:09:45;;;;;;;25.60;8.73;;;;;;;13.48;54.71;99519.38;6153173;23;20406;-87
2022/09/13 08:12:11;;;;;;;33.28;8.20;;;;;;;13.45;55.27;99503.53;6127901;23;20018;-88
2022/09/13 08:14:37;;;;;;;23.98;8.70;;;;;;;13.45;54.53;99489.81;6153045;23;20022;-86
2022/09/13 08:17:04;;;;;;;16.20;7.70;;;;;;;13.54;54.41;99485.06;6152924;23;20013;-86
2022/09/13 08:19:30;;;;;;;22.13;6.60;;;;;;;13.74;53.83;99535.75;6193281;23;20409;-87
2022/09/13 08:21:56;;;;;;;19.33;7.80;;;;;;;13.65;54.11;99522.06;6245773;23;20016;-87
2022/09/13 08:24:22;;;;;;;12.75;6.78;;;;;;;13.50;53.62;99484.94;6219635;23;20282;-88
2022/09/13 08:26:48;;;;;;;21.63;7.75;;;;;;;13.85;54.30;99510.34;6133766;23;20024;-89
2022/09/13 08:29:15;;;;;;;20.83;7.87;;;;;;;13.92;53.66;99506.28;6158929;23;20021;-90
2022/09/13 08:31:41;;;;;;;17.63;7.72;;;;;;;13.96;53.90;99499.78;6159438;23;20530;-87
2022/09/13 08:34:13;;;;;;;29.50;6.47;;;;;;;14.07;53.51;99490.03;6183173;23;20021;-86
2022/09/13 08:36:40;;;;;;;12.00;6.05;;;;;;;14.29;51.97;99508.16;6157829;23;20403;-85
2022/09/13 08:39:09;;;;;;;25.73;6.53;;;;;;;14.37;52.59;99517.53;6133615;23;20048;-85
2022/09/13 08:41:42;;;;;;;18.60;5.97;;;;;;;14.38;52.38;99508.13;6183024;23;20033;-87
2022/09/13 08:44:22;;;;;;;11.38;5.40;;;;;;;14.32;52.26;99507.50;6132689;23;20025;-85
2022/09/13 08:46:49;;;;;;;26.42;6.68;;;;;;;14.30;53.14;99512.53;6133149;23;20070;-86
2022/09/13 08:49:26;;;;;;;14.98;6.60;;;;;;;14.29;53.66;99499.91;6182151;23;20017;-87
2022/09/13 08:51:58;;;;;;;17.23;7.35;;;;;;;14.32;52.65;99477.25;6182079;23;20017;-86
2022/09/13 08:54:24;;;;;;;13.93;6.75;;;;;;;14.39;50.84;99471.22;6182158;23;20459;-86
2022/09/13 08:57:34;;;;;;;12.18;6.40;;;;;;;14.59;50.70;99494.41;6157455;23;20029;-86
2022/09/13 09:00:21;;;;;;;13.13;4.82;;;;;;;14.66;49.12;99491.13;6177959;23;20036;-87
2022/09/13 09:03:12;;;;;;;16.50;6.53;;;;;;;14.79;50.07;99487.28;6182088;23;20570;-86
2022/09/13 09:05:50;;;;;;;25.83;6.57;;;;;;;14.75;50.14;99453.34;6212870;23;20175;-86
2022/09/13 09:08:22;;;;;;;35.08;7.07;;;;;;;14.88;49.79;99463.25;6213337;23;20350;-87
2022/09/13 09:10:53;;;;;;;36.88;5.53;;;;;;;14.91;48.92;99467.28;6215033;23;20400;-88
2022/09/13 09:13:42;;;;;;;33.85;5.57;;;;;;;14.94;48.45;99450.88;6163235;23;20031;-86
2022/09/13 09:16:36;;;;;;;50.95;7.63;;;;;;;15.22;48.46;99467.59;6214664;23;20012;-86
2022/09/13 09:19:39;;;;;;;21.95;9.15;;;;;;;15.35;48.63;99462.94;6214523;23;20031;-86
2022/09/13 09:22:15;;;;;;;21.50;9.07;;;;;;;15.36;48.58;99449.97;6214461;23;20328;-86
2022/09/13 09:24:46;;;;;;;31.55;9.20;;;;;;;15.56;48.51;99465.59;6214778;23;20016;-87
2022/09/13 09:27:18;;;;;;;35.92;11.27;;;;;;;15.55;49.22;99447.47;6212966;23;20422;-87
2022/09/13 09:29:57;;;;;;;25.65;8.70;;;;;;;15.57;48.46;99445.19;6214362;23;20028;-86
2022/09/13 09:32:58;;;;;;;16.15;5.72;;;;;;;15.56;47.03;99448.25;6214225;23;20059;-86
2022/09/13 09:35:37;;;;;;;9.88;5.60;;;;;;;15.36;46.73;99423.22;6069052;23;20024;-88
2022/09/13 09:38:04;;;;;;;11.90;6.00;;;;;;;15.65;47.75;99458.03;6200044;23;20290;-90
2022/09/13 09:40:33;;;;;;;28.00;6.55;;;;;;;15.73;46.66;99456.38;6215705;23;20012;-96
2022/09/13 09:43:06;;;;;;;12.65;4.35;;;;;;;15.44;45.42;99382.94;6167956;23;20031;-94
2022/09/13 09:45:40;;;;;;;32.70;5.78;;;;;;;15.62;45.10;99420.13;6171413;23;20024;-91
2022/09/13 09:48:19;;;;;;;13.57;4.38;;;;;;;15.71;44.49;99431.88;6167693;23;20017;-93
2022/09/13 09:50:57;;;;;;;21.27;4.90;;;;;;;15.85;44.68;99444.53;6195479;23;20450;-94
2022/09/13 09:53:53;;;;;;;9.43;4.00;;;;;;;15.87;43.87;99440.28;6170677;23;20044;-94
2022/09/13 09:56:53;;;;;;;10.60;4.22;;;;;;;15.80;44.91;99444.78;6216528;23;20501;-88
2022/09/13 09:59:31;;;;;;;19.00;4.32;;;;;;;15.65;44.48;99435.97;6215701;23;20020;-92
2022/09/13 10:02:00;;;;;;;22.88;3.70;;;;;;;15.58;44.18;99440.47;6164506;23;20390;-92
2022/09/13 10:04:28;;;;;;;11.07;4.10;;;;;;;15.45;44.03;99415.66;6212840;23;20020;-87
2022/09/13 10:07:09;;;;;;;18.13;3.38;;;;;;;15.66;44.42;99440.41;6162947;23;20447;-89
2022/09/13 10:09:37;;;;;;;22.80;3.67;;;;;;;15.53;44.80;99422.22;6213413;23;20020;-89
2022/09/13 10:12:05;;;;;;;22.13;3.88;;;;;;;15.35;44.54;99409.78;6188754;23;20028;-92
2022/09/13 10:14:41;;;;;;;25.35;4.85;;;;;;;15.46;44.39;99438.50;6188474;23;20365;-90
2022/09/13 10:17:18;;;;;;;29.20;4.65;;;;;;;15.20;44.88;99403.81;6213742;23;20020;-90
2022/09/13 10:20:03;;;;;;;6.32;3.10;;;;;;;15.20;44.88;99414.03;6165159;23;20079;-91
2022/09/13 10:22:32;;;;;;;9.32;2.83;;;;;;;15.27;44.19;99417.03;6214650;23;20410;-90
2022/09/13 10:25:35;;;;;;;15.10;3.20;;;;;;;15.32;45.05;99424.25;6189964;23;20028;-90
2022/09/13 10:28:10;;;;;;;27.92;6.07;;;;;;;15.05;45.03;99404.47;6071423;23;20026;-88
2022/09/13 10:30:45;;;;;;;11.40;3.28;;;;;;;14.98;45.06;99394.00;6199907;23;20021;-90
2022/09/13 10:33:34;;;;;;;12.55;3.67;;;;;;;15.11;45.97;99421.56;6168168;23;20028;-88
2022/09/13 10:36:28;;;;;;;16.90;3.78;;;;;;;14.86;45.70;99382.16;6215389;23;20024;-87
2022/09/13 10:39:05;;;;;;;18.08;3.85;;;;;;;15.01;45.72;99409.84;6214750;23;20115;-88
2022/09/13 10:41:39;;;;;;;18.63;3.90;;;;;;;14.87;45.68;99387.34;6168639;23;20017;-92
2022/09/13 10:44:21;;;;;;;8.95;3.42;;;;;;;15.07;46.28;99407.69;6217356;23;20021;-90
2022/09/13 10:46:49;;;;;;;20.35;4.50;;;;;;;14.99;46.56;99400.31;6218709;23;20019;-94
2022/09/13 10:49:53;;;;;;;13.32;3.63;;;;;;;14.98;46.30;99384.94;6214998;23;20016;-93
2022/09/13 10:52:28;;;;;;;8.60;3.83;;;;;;;15.10;46.71;99400.66;6213777;23;20358;-89
2022/09/13 10:54:56;;;;;;;68.90;5.93;;;;;;;14.94;46.11;99376.56;6214698;23;20071;-88
2022/09/13 10:57:35;;;;;;;17.98;3.65;;;;;;;14.99;45.97;99387.34;6188075;23;20104;-87
2022/09/13 11:00:08;;;;;;;16.15;5.22;;;;;;;14.95;46.70;99369.09;6214091;23;20454;-89
2022/09/13 11:02:54;;;;;;;9.68;4.15;;;;;;;15.00;46.42;99377.97;6188279;23;20020;-89
2022/09/13 11:05:48;;;;;;;21.65;4.57;;;;;;;15.18;46.61;99388.78;6212990;23;20076;-88
2022/09/13 11:08:20;;;;;;;20.30;5.78;;;;;;;15.16;47.13;99388.31;6188220;23;20020;-89
2022/09/13 11:11:34;;;;;;;20.77;5.10;;;;;;;15.12;46.49;99392.88;6213167;23;20016;-94
2022/09/13 11:14:44;;;;;;;45.72;5.65;;;;;;;15.09;47.51;99383.34;6108507;23;20033;-89
2022/09/13 11:17:29;;;;;;;14.80;3.67;;;;;;;15.07;46.49;99371.91;6189306;23;20009;-88
2022/09/13 11:20:23;;;;;;;16.25;4.25;;;;;;;14.96;46.43;99371.50;6213260;23;20017;-89
2022/09/13 11:22:58;;;;;;;17.30;3.72;;;;;;;14.90;46.08;99350.88;6214575;23;20024;-90
2022/09/13 11:25:55;;;;;;;14.23;4.60;;;;;;;15.03;45.49;99370.94;6187761;23;20548;-87
2022/09/13 11:28:47;;;;;;;15.90;5.28;;;;;;;15.04;46.55;99372.56;6188223;23;20023;-87
2022/09/13 11:31:28;;;;;;;23.17;5.65;;;;;;;15.03;46.44;99360.75;6127176;23;20021;-88
2022/09/13 11:34:11;;;;;;;25.15;7.93;;;;;;;14.91;46.54;99349.72;6127203;23;20448;-89
2022/09/13 11:37:03;;;;;;;20.65;6.45;;;;;;;15.05;47.23;99360.41;6102420;23;20072;-88
2022/09/13 11:39:46;;;;;;;64.22;5.93;;;;;;;14.98;46.69;99363.72;6126685;23;20448;-88
2022/09/13 11:42:50;;;;;;;15.38;3.40;;;;;;;15.03;46.40;99357.19;6151526;23;20414;-87
2022/09/13 11:45:28;;;;;;;12.15;3.42;;;;;;;14.93;46.21;99338.34;6040621;23;20528;-89
2022/09/13 11:48:24;;;;;;;13.00;4.05;;;;;;;15.07;46.58;99365.59;5993192;23;20018;-90
2022/09/13 11:51:17;;;;;;;27.38;3.97;;;;;;;15.08;46.85;99358.94;6016849;23;20023;-90
2022/09/13 11:53:55;;;;;;;57.75;6.15;;;;;;;15.10;46.92;99365.72;6064855;23;20023;-90
2022/09/13 11:56:43;;;;;;;58.55;5.43;;;;;;;15.08;46.88;99356.19;6041093;23;20402;-89
2022/09/13 11:59:27;;;;;;;23.42;4.03;;;;;;;15.00;46.03;99361.44;5996107;23;20489;-87